Saltar para o conteúdo principal

Madeira, Cancela

ID 1210977 · 32.6450, -16.8658 mapa

Última leitura · 2026-05-09 18:00 (Europe/Lisbon)

Temperatura
16.8 °C
Humidade
81 %
Pressão
Precipitação
0.0 mm
Radiação
1,560 W/m²
Velocidade do vento
8.3 km/h
Direcção do vento
SE · Sudeste

Histórico de 24 horas

Hora (Europe/Lisbon) Temperatura Humidade Pressão Chuva Vento Direcção
2026-05-09 18:00 16.8 °C 81 % 0.0 mm 8.3 km/h SE
2026-05-09 17:00 17.1 °C 79 % 0.0 mm 9.0 km/h SE
2026-05-09 16:00 17.4 °C 74 % 0.0 mm 8.3 km/h SE
2026-05-09 15:00 17.7 °C 71 % 0.0 mm 9.7 km/h SE
2026-05-09 14:00 17.5 °C 76 % 0.1 mm 7.2 km/h E
2026-05-09 13:00 17.6 °C 76 % 0.0 mm 10.8 km/h E
2026-05-09 12:00 17.1 °C 78 % 0.0 mm 10.8 km/h E
2026-05-09 11:00 16.3 °C 80 % 0.0 mm 11.9 km/h NE
2026-05-09 10:00 15.5 °C 82 % 0.1 mm 14.8 km/h E
2026-05-09 09:00 14.3 °C 82 % 0.0 mm 8.3 km/h N
2026-05-09 08:00 13.8 °C 82 % 0.0 mm 5.8 km/h N
2026-05-09 07:00 13.9 °C 86 % 0.0 mm 4.0 km/h NE
2026-05-09 06:00 14.0 °C 85 % 0.0 mm 1.8 km/h NE
2026-05-09 05:00 14.0 °C 87 % 0.0 mm 5.0 km/h E
2026-05-09 04:00 14.4 °C 82 % 0.0 mm 4.0 km/h NE
2026-05-09 03:00 14.5 °C 80 % 0.1 mm 4.7 km/h NE
2026-05-09 02:00 14.5 °C 81 % 0.0 mm 6.1 km/h NE
2026-05-09 01:00 15.0 °C 78 % 0.0 mm 5.0 km/h NE
2026-05-09 00:00 14.9 °C 81 % 0.0 mm 6.1 km/h E
2026-05-08 23:00 15.2 °C 83 % 0.0 mm 4.0 km/h NE
2026-05-08 22:00 15.2 °C 87 % 0.1 mm 2.9 km/h E
2026-05-08 21:00 14.9 °C 90 % 0.0 mm 10.1 km/h E
2026-05-08 20:00 14.9 °C 89 % 0.0 mm 15.1 km/h NE
2026-05-08 19:00 16.3 °C 76 % 0.0 mm 11.2 km/h NE